createdAt,value
2022-11-20T00:00:55.950Z,4.45
2022-11-20T00:03:22.790Z,4.50
2022-11-20T00:05:49.664Z,4.45
2022-11-20T00:08:16.487Z,4.64
2022-11-20T00:10:43.296Z,4.69
2022-11-20T00:13:10.153Z,4.48
2022-11-20T00:15:36.980Z,4.54
2022-11-20T00:18:03.837Z,4.15
2022-11-20T00:20:31.183Z,3.91
2022-11-20T00:22:58.000Z,3.86
2022-11-20T00:25:24.840Z,3.87
2022-11-20T00:27:51.748Z,3.78
2022-11-20T00:30:18.926Z,4.43
2022-11-20T00:32:45.732Z,4.56
2022-11-20T00:35:13.094Z,4.59
2022-11-20T00:37:39.924Z,3.93
2022-11-20T00:40:07.474Z,3.78
2022-11-20T00:42:34.955Z,3.77
2022-11-20T00:45:01.749Z,3.70
2022-11-20T00:47:30.087Z,3.64
2022-11-20T00:49:56.960Z,3.61
2022-11-20T00:52:23.782Z,3.59
2022-11-20T00:54:50.609Z,3.91
2022-11-20T00:57:17.468Z,3.98
2022-11-20T00:59:44.440Z,3.59
2022-11-20T01:02:11.257Z,3.53
2022-11-20T01:04:38.121Z,3.98
2022-11-20T01:07:05.018Z,3.59
2022-11-20T01:09:31.962Z,3.49
2022-11-20T01:12:00.129Z,3.67
2022-11-20T01:14:26.966Z,4.09
2022-11-20T01:16:53.898Z,4.08
2022-11-20T01:19:24.465Z,4.07
2022-11-20T01:21:53.835Z,3.96
2022-11-20T01:24:21.191Z,4.15
2022-11-20T01:26:49.224Z,4.17
2022-11-20T01:29:18.034Z,4.05
2022-11-20T01:31:45.011Z,3.31
2022-11-20T01:34:16.732Z,3.62
2022-11-20T01:36:43.843Z,3.34
2022-11-20T01:39:19.501Z,3.87
2022-11-20T01:42:09.678Z,3.70
2022-11-20T01:44:54.518Z,3.37
2022-11-20T01:47:33.204Z,3.27
2022-11-20T01:50:20.385Z,3.22
2022-11-20T01:52:52.533Z,3.15
2022-11-20T01:55:21.490Z,3.12
2022-11-20T01:57:48.365Z,3.09
2022-11-20T02:00:16.571Z,3.06
2022-11-20T02:02:47.573Z,3.03
2022-11-20T02:05:26.456Z,3.02
2022-11-20T02:07:53.382Z,3.46
2022-11-20T02:10:20.210Z,3.62
2022-11-20T02:13:05.807Z,3.68
2022-11-20T02:15:33.668Z,3.02
2022-11-20T02:18:00.509Z,2.93
2022-11-20T02:20:27.378Z,2.87
2022-11-20T02:23:06.244Z,2.82
2022-11-20T02:25:33.135Z,2.81
2022-11-20T02:27:59.955Z,3.22
2022-11-20T02:30:26.917Z,3.06
2022-11-20T02:32:53.768Z,2.76
2022-11-20T02:35:20.499Z,2.85
2022-11-20T02:37:51.711Z,3.17
2022-11-20T02:40:18.708Z,3.47
2022-11-20T02:42:45.597Z,2.90
2022-11-20T02:45:12.563Z,2.72
2022-11-20T02:47:39.390Z,2.65
2022-11-20T02:50:06.644Z,2.49
2022-11-20T02:52:33.529Z,2.63
2022-11-20T02:55:00.446Z,2.55
2022-11-20T02:57:27.312Z,2.48
2022-11-20T02:59:54.126Z,2.46
2022-11-20T03:02:21.561Z,2.79
2022-11-20T03:04:48.373Z,3.12
2022-11-20T03:07:15.390Z,3.15
2022-11-20T03:09:42.312Z,3.20
2022-11-20T03:12:09.135Z,3.19
2022-11-20T03:14:35.957Z,2.89
2022-11-20T03:17:02.811Z,2.94
2022-11-20T03:19:29.625Z,2.97
2022-11-20T03:21:56.432Z,3.03
2022-11-20T03:24:23.305Z,3.00
2022-11-20T03:26:50.105Z,2.98
2022-11-20T03:29:16.911Z,3.02
2022-11-20T03:31:43.880Z,3.04
2022-11-20T03:34:11.732Z,2.82
2022-11-20T03:36:40.043Z,3.08
2022-11-20T03:39:06.954Z,3.09
2022-11-20T03:41:37.947Z,2.98
2022-11-20T03:44:06.412Z,3.03
2022-11-20T03:46:33.436Z,2.95
2022-11-20T03:49:00.256Z,3.00
2022-11-20T03:51:28.408Z,2.47
2022-11-20T03:53:56.349Z,1.96
2022-11-20T03:56:27.976Z,2.26
2022-11-20T03:58:54.990Z,2.25
2022-11-20T04:01:33.068Z,2.80
2022-11-20T04:04:00.253Z,2.90
2022-11-20T04:06:30.721Z,2.92
2022-11-20T04:08:58.346Z,2.91
2022-11-20T04:11:28.798Z,2.65
2022-11-20T04:14:05.641Z,2.81
2022-11-20T04:16:34.085Z,2.82
2022-11-20T04:19:01.816Z,2.82
2022-11-20T04:21:28.705Z,2.83
2022-11-20T04:23:55.885Z,2.35
2022-11-20T04:26:23.575Z,2.17
2022-11-20T04:28:50.486Z,2.76
2022-11-20T04:31:18.970Z,2.84
2022-11-20T04:33:45.962Z,2.18
2022-11-20T04:36:14.543Z,2.11
2022-11-20T04:38:41.689Z,2.05
2022-11-20T04:41:09.671Z,2.10
2022-11-20T04:43:36.539Z,2.45
2022-11-20T04:46:03.412Z,2.25
2022-11-20T04:48:30.374Z,2.14
2022-11-20T04:50:57.237Z,2.24
2022-11-20T04:53:24.262Z,2.53
2022-11-20T04:55:51.128Z,1.96
2022-11-20T04:58:17.984Z,1.72
2022-11-20T05:00:44.924Z,1.89
2022-11-20T05:03:11.813Z,1.82
2022-11-20T05:05:38.651Z,1.79
2022-11-20T05:08:05.476Z,1.78
2022-11-20T05:10:32.319Z,1.76
2022-11-20T05:12:59.107Z,1.82
2022-11-20T05:15:26.058Z,1.76
2022-11-20T05:17:53.286Z,1.72
2022-11-20T05:20:20.260Z,1.49
2022-11-20T05:22:47.166Z,1.68
2022-11-20T05:25:14.094Z,1.64
2022-11-20T05:27:40.963Z,1.64
2022-11-20T05:30:08.480Z,1.69
2022-11-20T05:32:35.377Z,2.17
2022-11-20T05:35:02.268Z,1.82
2022-11-20T05:37:29.106Z,2.00
2022-11-20T05:39:55.959Z,2.04
2022-11-20T05:42:31.924Z,1.79
2022-11-20T05:45:02.891Z,2.34
2022-11-20T05:47:32.229Z,2.47
2022-11-20T05:49:59.126Z,2.53
2022-11-20T05:52:26.047Z,2.57
2022-11-20T05:54:52.902Z,2.56
2022-11-20T05:57:19.724Z,2.55
2022-11-20T05:59:46.540Z,2.52
2022-11-20T06:02:13.612Z,2.58
2022-11-20T06:04:40.524Z,2.57
2022-11-20T06:07:07.508Z,2.55
2022-11-20T06:09:34.409Z,1.76
2022-11-20T06:12:01.217Z,1.64
2022-11-20T06:14:28.049Z,1.57
2022-11-20T06:16:54.925Z,1.53
2022-11-20T06:19:21.912Z,1.82
2022-11-20T06:21:50.468Z,1.53
2022-11-20T06:24:17.677Z,1.82
2022-11-20T06:26:44.610Z,1.56
2022-11-20T06:29:11.653Z,2.07
2022-11-20T06:31:38.901Z,1.54
2022-11-20T06:34:07.085Z,1.56
2022-11-20T06:36:34.022Z,1.46
2022-11-20T06:39:01.345Z,1.90
2022-11-20T06:41:28.964Z,1.44
2022-11-20T06:43:55.951Z,1.40
2022-11-20T06:46:23.220Z,2.01
2022-11-20T06:48:50.218Z,1.42
2022-11-20T06:51:17.152Z,2.07
2022-11-20T06:53:44.029Z,1.56
2022-11-20T06:56:10.872Z,2.01
2022-11-20T06:58:38.073Z,2.10
2022-11-20T07:01:10.078Z,2.20
2022-11-20T07:03:37.079Z,1.55
2022-11-20T07:06:04.163Z,1.29
2022-11-20T07:08:31.184Z,1.40
2022-11-20T07:10:59.672Z,1.95
2022-11-20T07:13:27.335Z,1.81
2022-11-20T07:15:54.233Z,2.20
2022-11-20T07:18:21.150Z,2.25
2022-11-20T07:20:48.323Z,2.32
2022-11-20T07:23:15.175Z,2.33
2022-11-20T07:25:42.073Z,2.34
2022-11-20T07:28:09.246Z,2.22
2022-11-20T07:30:36.125Z,2.34
2022-11-20T07:33:02.980Z,1.63
2022-11-20T07:35:29.794Z,1.54
2022-11-20T07:37:56.762Z,1.51
2022-11-20T07:40:23.573Z,1.48
2022-11-20T07:42:54.187Z,1.53
2022-11-20T07:45:21.660Z,1.49
2022-11-20T07:47:48.496Z,1.48
2022-11-20T07:50:15.572Z,1.49
2022-11-20T07:52:42.477Z,1.82
2022-11-20T07:55:10.076Z,1.34
2022-11-20T07:57:36.882Z,1.78
2022-11-20T08:00:05.698Z,1.68
2022-11-20T08:02:40.308Z,2.29
2022-11-20T08:05:08.203Z,2.45
2022-11-20T08:07:41.788Z,1.91
2022-11-20T08:10:09.940Z,1.58
2022-11-20T08:12:55.637Z,1.79
2022-11-20T08:15:22.796Z,1.64
2022-11-20T08:18:15.300Z,2.22
2022-11-20T08:20:36.601Z,2.13
2022-11-20T08:23:06.586Z,1.90
2022-11-20T08:25:34.425Z,1.89
2022-11-20T08:28:07.927Z,1.83
2022-11-20T08:30:42.676Z,1.90
2022-11-20T08:33:09.821Z,2.62
2022-11-20T08:35:37.318Z,2.80
2022-11-20T08:38:05.164Z,2.88
2022-11-20T08:40:32.441Z,2.92
2022-11-20T08:42:59.273Z,2.97
2022-11-20T08:45:29.696Z,3.00
2022-11-20T08:48:03.933Z,2.45
2022-11-20T08:50:33.193Z,2.76
2022-11-20T08:53:06.376Z,2.26
2022-11-20T08:55:33.340Z,2.85
2022-11-20T08:58:04.651Z,2.26
2022-11-20T09:00:31.538Z,2.20
2022-11-20T09:02:59.601Z,2.20
2022-11-20T09:05:26.493Z,2.21
2022-11-20T09:07:53.419Z,2.22
2022-11-20T09:10:24.674Z,2.23
2022-11-20T09:12:52.869Z,2.28
2022-11-20T09:15:20.105Z,2.28
2022-11-20T09:17:53.274Z,2.99
2022-11-20T09:20:20.381Z,3.19
2022-11-20T09:22:47.368Z,3.27
2022-11-20T09:25:14.232Z,3.30
2022-11-20T09:27:44.723Z,3.36
2022-11-20T09:30:12.184Z,3.41
2022-11-20T09:32:42.257Z,3.46
2022-11-20T09:35:09.511Z,3.31
2022-11-20T09:37:36.379Z,3.50
2022-11-20T09:40:03.410Z,3.53
2022-11-20T09:42:39.123Z,3.57
2022-11-20T09:45:39.773Z,3.60
2022-11-20T09:48:16.408Z,3.62
2022-11-20T09:51:11.363Z,3.64
2022-11-20T09:53:52.259Z,3.68
2022-11-20T09:56:22.550Z,3.70
2022-11-20T09:58:51.476Z,3.74
2022-11-20T10:01:30.266Z,3.78
2022-11-20T10:04:00.191Z,3.79
2022-11-20T10:06:34.562Z,3.58
2022-11-20T10:09:08.623Z,3.04
2022-11-20T10:11:41.440Z,2.99
2022-11-20T10:14:26.413Z,3.73
2022-11-20T10:17:14.225Z,3.86
2022-11-20T10:20:07.852Z,3.94
2022-11-20T10:23:12.104Z,4.00
2022-11-20T10:26:06.416Z,4.05
2022-11-20T10:29:00.622Z,4.10
2022-11-20T10:31:34.177Z,4.14
2022-11-20T10:34:12.414Z,4.18
2022-11-20T10:36:47.992Z,4.20
2022-11-20T10:39:40.519Z,4.29
2022-11-20T10:42:10.507Z,4.34
2022-11-20T10:44:56.959Z,4.38
2022-11-20T10:47:24.184Z,4.42
2022-11-20T10:49:54.880Z,4.48
2022-11-20T10:52:28.434Z,4.53
2022-11-20T10:54:55.200Z,4.54
2022-11-20T10:57:40.715Z,4.64
2022-11-20T11:00:12.004Z,4.58
2022-11-20T11:02:48.084Z,4.67
2022-11-20T11:05:19.646Z,4.47
2022-11-20T11:07:46.526Z,3.99
2022-11-20T11:10:22.409Z,4.56
2022-11-20T11:12:49.355Z,4.16
2022-11-20T11:15:26.897Z,4.49
2022-11-20T11:17:53.895Z,4.19
2022-11-20T11:20:22.323Z,4.16
2022-11-20T11:22:58.351Z,4.23
2022-11-20T11:25:34.542Z,4.29
2022-11-20T11:28:05.933Z,4.26
2022-11-20T11:30:42.851Z,4.19
2022-11-20T11:33:28.491Z,4.67
2022-11-20T11:36:03.913Z,4.81
2022-11-20T11:38:38.646Z,4.67
2022-11-20T11:41:06.431Z,5.17
2022-11-20T11:43:55.922Z,5.37
2022-11-20T11:46:29.868Z,5.48
2022-11-20T11:48:58.354Z,5.53
2022-11-20T11:51:27.766Z,5.57
2022-11-20T11:53:54.901Z,5.66
2022-11-20T11:56:21.750Z,5.70
2022-11-20T11:58:50.469Z,5.76
2022-11-20T12:01:46.018Z,5.82
2022-11-20T12:04:18.937Z,5.86
2022-11-20T12:06:59.410Z,5.91
2022-11-20T12:09:30.187Z,5.92
2022-11-20T12:12:01.642Z,6.02
2022-11-20T12:14:41.685Z,6.06
2022-11-20T12:17:11.076Z,6.09
2022-11-20T12:19:37.864Z,6.12
2022-11-20T12:22:37.733Z,6.19
2022-11-20T12:25:11.991Z,6.23
2022-11-20T12:28:00.101Z,6.25
2022-11-20T12:30:27.097Z,6.28
2022-11-20T12:33:30.176Z,6.33
2022-11-20T12:36:11.884Z,6.35
2022-11-20T12:39:27.005Z,6.38
2022-11-20T12:42:24.783Z,6.43
2022-11-20T12:45:15.445Z,6.47
2022-11-20T12:48:00.977Z,6.51
2022-11-20T12:50:30.593Z,6.55
2022-11-20T12:53:27.156Z,6.57
2022-11-20T12:55:53.932Z,6.09
2022-11-20T12:58:47.604Z,6.50
2022-11-20T13:01:43.499Z,5.99
2022-11-20T13:04:22.403Z,5.85
2022-11-20T13:06:49.271Z,5.84
2022-11-20T13:09:17.352Z,5.85
2022-11-20T13:12:07.618Z,5.87
2022-11-20T13:14:56.645Z,6.50
2022-11-20T13:17:38.012Z,6.42
2022-11-20T13:20:07.111Z,6.55
2022-11-20T13:22:53.487Z,6.30
2022-11-20T13:25:23.922Z,6.27
2022-11-20T13:27:50.747Z,6.26
2022-11-20T13:30:21.879Z,6.55
2022-11-20T13:33:00.948Z,6.60
2022-11-20T13:35:35.330Z,6.75
2022-11-20T13:38:07.328Z,6.75
2022-11-20T13:40:34.887Z,6.84
2022-11-20T13:43:21.384Z,6.87
2022-11-20T13:46:25.422Z,6.25
2022-11-20T13:48:52.643Z,6.76
2022-11-20T13:51:28.814Z,6.27
2022-11-20T13:54:20.495Z,6.31
2022-11-20T13:57:05.936Z,6.19
2022-11-20T13:59:45.220Z,6.77
2022-11-20T14:02:17.099Z,7.00
2022-11-20T14:04:46.294Z,6.38
2022-11-20T14:07:13.664Z,6.75
2022-11-20T14:09:49.464Z,6.98
2022-11-20T14:12:17.818Z,6.92
2022-11-20T14:14:52.789Z,7.07
2022-11-20T14:17:23.609Z,6.80
2022-11-20T14:19:51.642Z,6.33
2022-11-20T14:22:26.453Z,6.79
2022-11-20T14:25:08.499Z,6.47
2022-11-20T14:27:39.872Z,6.31
2022-11-20T14:30:13.592Z,6.25
2022-11-20T14:32:40.568Z,6.71
2022-11-20T14:35:14.711Z,6.40
2022-11-20T14:37:41.740Z,6.76
2022-11-20T14:40:39.434Z,7.10
2022-11-20T14:43:25.562Z,7.14
2022-11-20T14:45:59.924Z,7.14
2022-11-20T14:48:35.857Z,7.17
2022-11-20T14:51:02.751Z,7.17
2022-11-20T14:53:29.580Z,7.19
2022-11-20T14:55:59.080Z,7.20
2022-11-20T14:58:30.905Z,7.28
2022-11-20T15:00:59.723Z,7.38
2022-11-20T15:03:39.986Z,7.17
2022-11-20T15:06:07.871Z,7.37
2022-11-20T15:08:35.403Z,7.34
2022-11-20T15:11:02.208Z,7.35
2022-11-20T15:13:37.476Z,7.37
2022-11-20T15:16:05.314Z,6.85
2022-11-20T15:18:42.561Z,6.85
2022-11-20T15:21:14.150Z,7.11
2022-11-20T15:23:41.299Z,7.22
2022-11-20T15:26:09.097Z,7.26
2022-11-20T15:28:43.394Z,6.70
2022-11-20T15:31:13.572Z,6.74
2022-11-20T15:33:40.430Z,6.54
2022-11-20T15:36:07.295Z,7.27
2022-11-20T15:38:34.159Z,7.29
2022-11-20T15:41:00.962Z,7.35
2022-11-20T15:43:27.785Z,7.34
2022-11-20T15:46:06.122Z,7.34
2022-11-20T15:48:42.064Z,7.33
2022-11-20T15:51:30.408Z,7.27
2022-11-20T15:53:57.396Z,7.27
2022-11-20T15:56:24.283Z,7.27
2022-11-20T15:58:51.153Z,7.34
2022-11-20T16:01:19.445Z,7.26
2022-11-20T16:03:46.341Z,7.29
2022-11-20T16:06:13.230Z,7.28
2022-11-20T16:08:40.055Z,7.29
2022-11-20T16:11:06.880Z,7.21
2022-11-20T16:13:52.565Z,7.21
2022-11-20T16:16:24.116Z,7.22
2022-11-20T16:18:51.107Z,7.16
2022-11-20T16:21:18.044Z,7.12
2022-11-20T16:23:44.994Z,7.14
2022-11-20T16:26:12.513Z,7.13
2022-11-20T16:28:39.556Z,6.93
2022-11-20T16:31:13.702Z,7.04
2022-11-20T16:33:40.836Z,7.06
2022-11-20T16:36:11.461Z,6.93
2022-11-20T16:38:38.371Z,7.09
2022-11-20T16:41:05.472Z,7.02
2022-11-20T16:43:32.294Z,6.97
2022-11-20T16:45:59.245Z,7.06
2022-11-20T16:48:26.204Z,6.96
2022-11-20T16:50:53.881Z,6.98
2022-11-20T16:53:21.367Z,6.85
2022-11-20T16:55:48.283Z,6.95
2022-11-20T16:58:15.393Z,6.98
2022-11-20T17:00:46.926Z,6.97
2022-11-20T17:03:18.084Z,6.87
2022-11-20T17:05:44.919Z,6.92
2022-11-20T17:08:11.780Z,6.91
2022-11-20T17:10:38.630Z,6.92
2022-11-20T17:13:05.457Z,6.91
2022-11-20T17:15:32.271Z,6.82
2022-11-20T17:17:59.119Z,6.90
2022-11-20T17:20:25.994Z,6.86
2022-11-20T17:22:52.900Z,6.78
2022-11-20T17:25:19.736Z,6.63
2022-11-20T17:27:46.574Z,6.54
2022-11-20T17:30:13.500Z,6.69
2022-11-20T17:32:45.484Z,6.64
2022-11-20T17:35:12.379Z,6.47
2022-11-20T17:37:39.233Z,6.49
2022-11-20T17:40:06.630Z,6.36
2022-11-20T17:42:36.947Z,6.45
2022-11-20T17:45:04.794Z,6.35
2022-11-20T17:47:31.836Z,6.30
2022-11-20T17:49:58.694Z,6.27
2022-11-20T17:52:25.572Z,6.24
2022-11-20T17:54:55.917Z,6.37
2022-11-20T17:57:42.740Z,6.40
2022-11-20T18:00:13.075Z,6.26
2022-11-20T18:02:40.147Z,6.25
2022-11-20T18:05:07.251Z,6.25
2022-11-20T18:07:40.132Z,6.22
2022-11-20T18:10:09.064Z,6.18
2022-11-20T18:12:35.920Z,6.05
2022-11-20T18:15:02.775Z,5.95
2022-11-20T18:17:29.636Z,6.07
2022-11-20T18:20:21.896Z,6.14
2022-11-20T18:22:43.328Z,6.18
2022-11-20T18:25:10.502Z,6.13
2022-11-20T18:27:38.543Z,6.21
2022-11-20T18:30:05.901Z,6.20
2022-11-20T18:32:34.116Z,6.22
2022-11-20T18:35:01.642Z,6.17
2022-11-20T18:37:28.677Z,6.23
2022-11-20T18:39:56.546Z,6.11
2022-11-20T18:42:41.943Z,6.07
2022-11-20T18:45:08.808Z,6.08
2022-11-20T18:47:37.871Z,6.06
2022-11-20T18:50:05.604Z,5.82
2022-11-20T18:52:34.153Z,6.06
2022-11-20T18:55:02.417Z,6.06
2022-11-20T18:57:29.571Z,6.05
2022-11-20T19:00:02.178Z,5.95
2022-11-20T19:02:37.951Z,6.04
2022-11-20T19:05:08.734Z,6.02
2022-11-20T19:07:35.643Z,6.07
2022-11-20T19:10:04.113Z,6.09
2022-11-20T19:12:31.467Z,6.11
2022-11-20T19:14:58.360Z,6.11
2022-11-20T19:17:25.190Z,6.10
2022-11-20T19:19:54.913Z,6.12
2022-11-20T19:22:22.297Z,6.05
2022-11-20T19:24:49.447Z,6.08
2022-11-20T19:27:16.329Z,5.83
2022-11-20T19:29:43.171Z,5.85
2022-11-20T19:32:10.058Z,6.05
2022-11-20T19:34:37.044Z,6.03
2022-11-20T19:37:05.137Z,6.02
2022-11-20T19:39:31.955Z,6.02
2022-11-20T19:41:58.798Z,5.96
2022-11-20T19:44:25.671Z,5.82
2022-11-20T19:46:52.469Z,5.75
2022-11-20T19:49:19.438Z,5.72
2022-11-20T19:51:47.760Z,5.89
2022-11-20T19:54:14.683Z,5.85
2022-11-20T19:56:41.630Z,5.73
2022-11-20T19:59:08.619Z,5.69
2022-11-20T20:01:35.650Z,5.87
2022-11-20T20:04:05.146Z,5.94
2022-11-20T20:06:33.555Z,6.01
2022-11-20T20:09:04.373Z,6.06
2022-11-20T20:11:31.842Z,5.91
2022-11-20T20:14:07.257Z,5.78
2022-11-20T20:16:35.208Z,5.77
2022-11-20T20:19:02.831Z,5.69
2022-11-20T20:21:30.688Z,5.69
2022-11-20T20:23:57.765Z,5.63
2022-11-20T20:26:25.150Z,5.67
2022-11-20T20:28:52.048Z,5.53
2022-11-20T20:31:20.293Z,5.57
2022-11-20T20:33:47.277Z,5.55
2022-11-20T20:36:15.313Z,5.51
2022-11-20T20:38:43.237Z,5.59
2022-11-20T20:41:10.258Z,5.59
2022-11-20T20:43:57.712Z,5.58
2022-11-20T20:46:24.679Z,5.48
2022-11-20T20:48:54.721Z,5.45
2022-11-20T20:51:22.546Z,5.39
2022-11-20T20:53:49.742Z,5.37
2022-11-20T20:56:16.665Z,5.27
2022-11-20T20:58:43.579Z,5.45
2022-11-20T21:01:12.768Z,5.42
2022-11-20T21:03:39.711Z,5.45
2022-11-20T21:06:06.883Z,5.47
2022-11-20T21:08:33.818Z,5.45
2022-11-20T21:11:08.316Z,5.50
2022-11-20T21:13:35.375Z,5.59
2022-11-20T21:16:02.412Z,5.48
2022-11-20T21:18:29.431Z,5.50
2022-11-20T21:21:14.681Z,5.42
2022-11-20T21:23:44.608Z,5.70
2022-11-20T21:26:11.526Z,5.68
2022-11-20T21:28:38.322Z,5.64
2022-11-20T21:31:12.235Z,5.60
2022-11-20T21:33:40.291Z,5.58
2022-11-20T21:36:08.020Z,5.64
2022-11-20T21:38:35.664Z,5.61
2022-11-20T21:41:06.441Z,5.65
2022-11-20T21:43:33.379Z,5.50
2022-11-20T21:46:07.764Z,5.63
2022-11-20T21:48:35.883Z,5.64
2022-11-20T21:51:06.785Z,5.55
2022-11-20T21:53:34.275Z,5.44
2022-11-20T21:56:01.217Z,5.53
2022-11-20T21:58:28.228Z,5.53
2022-11-20T22:00:55.148Z,5.50
2022-11-20T22:03:22.212Z,5.50
2022-11-20T22:05:58.782Z,5.50
2022-11-20T22:08:25.980Z,5.51
2022-11-20T22:10:55.880Z,5.54
2022-11-20T22:13:42.170Z,5.62
2022-11-20T22:16:09.110Z,5.63
2022-11-20T22:18:35.993Z,5.65
2022-11-20T22:21:07.050Z,5.67
2022-11-20T22:23:34.366Z,5.66
2022-11-20T22:26:11.970Z,5.68
2022-11-20T22:28:39.041Z,6.04
2022-11-20T22:31:07.642Z,6.08
2022-11-20T22:33:34.824Z,6.09
2022-11-20T22:36:06.910Z,6.15
2022-11-20T22:38:38.870Z,6.19
2022-11-20T22:41:16.730Z,6.06
2022-11-20T22:43:43.883Z,6.11
2022-11-20T22:46:14.926Z,5.95
2022-11-20T22:48:49.872Z,5.64
2022-11-20T22:51:20.226Z,5.92
2022-11-20T22:53:47.416Z,5.80
2022-11-20T22:56:14.439Z,5.64
2022-11-20T22:58:43.339Z,5.56
2022-11-20T23:01:10.879Z,6.13
2022-11-20T23:03:38.017Z,6.17
2022-11-20T23:06:05.262Z,5.57
2022-11-20T23:08:32.196Z,5.81
2022-11-20T23:11:02.385Z,5.83
2022-11-20T23:13:29.427Z,5.33
2022-11-20T23:16:00.979Z,5.91
2022-11-20T23:18:27.866Z,5.90
2022-11-20T23:20:54.747Z,6.01
2022-11-20T23:23:21.610Z,6.06
2022-11-20T23:25:48.480Z,5.44
2022-11-20T23:28:15.301Z,5.20
2022-11-20T23:30:42.187Z,5.69
2022-11-20T23:33:09.042Z,5.42
2022-11-20T23:35:39.798Z,5.72
2022-11-20T23:38:06.762Z,5.85
2022-11-20T23:40:38.732Z,5.67
2022-11-20T23:43:17.455Z,5.22
2022-11-20T23:45:48.469Z,5.60
2022-11-20T23:48:15.498Z,5.31
2022-11-20T23:50:42.558Z,5.83
2022-11-20T23:53:09.449Z,5.77
2022-11-20T23:55:36.550Z,5.87
2022-11-20T23:58:03.887Z,5.47
